sensor_id;sensor_type;location;lat;lon;timestamp;temperature;humidity
1800;DHT22;919;48.274;12.292;2022-11-15T00:00:44;1.30;99.90
1800;DHT22;919;48.274;12.292;2022-11-15T00:03:13;1.30;99.90
1800;DHT22;919;48.274;12.292;2022-11-15T00:05:40;1.30;99.90
1800;DHT22;919;48.274;12.292;2022-11-15T00:08:07;1.20;99.90
1800;DHT22;919;48.274;12.292;2022-11-15T00:10:33;1.30;99.90
1800;DHT22;919;48.274;12.292;2022-11-15T00:13:03;1.30;99.90
1800;DHT22;919;48.274;12.292;2022-11-15T00:15:32;1.30;99.90
1800;DHT22;919;48.274;12.292;2022-11-15T00:18:00;1.30;99.90
1800;DHT22;919;48.274;12.292;2022-11-15T00:20:27;1.20;99.90
1800;DHT22;919;48.274;12.292;2022-11-15T00:22:53;1.10;99.90
1800;DHT22;919;48.274;12.292;2022-11-15T00:25:20;1.10;99.90
1800;DHT22;919;48.274;12.292;2022-11-15T00:27:47;1.00;99.90
1800;DHT22;919;48.274;12.292;2022-11-15T00:30:14;0.90;99.90
1800;DHT22;919;48.274;12.292;2022-11-15T00:32:42;0.70;99.90
1800;DHT22;919;48.274;12.292;2022-11-15T00:35:09;0.60;99.90
1800;DHT22;919;48.274;12.292;2022-11-15T00:37:36;0.60;99.90
1800;DHT22;919;48.274;12.292;2022-11-15T00:40:03;0.60;99.90
1800;DHT22;919;48.274;12.292;2022-11-15T00:42:30;0.70;99.90
1800;DHT22;919;48.274;12.292;2022-11-15T00:44:56;0.90;99.90
1800;DHT22;919;48.274;12.292;2022-11-15T00:47:23;0.90;99.90
1800;DHT22;919;48.274;12.292;2022-11-15T00:49:51;0.80;99.90
1800;DHT22;919;48.274;12.292;2022-11-15T00:52:18;0.90;99.90
1800;DHT22;919;48.274;12.292;2022-11-15T00:54:45;0.90;99.90
1800;DHT22;919;48.274;12.292;2022-11-15T00:57:11;0.90;99.90
1800;DHT22;919;48.274;12.292;2022-11-15T00:59:38;0.90;99.90
1800;DHT22;919;48.274;12.292;2022-11-15T01:02:05;0.90;99.90
1800;DHT22;919;48.274;12.292;2022-11-15T01:04:32;0.90;99.90
1800;DHT22;919;48.274;12.292;2022-11-15T01:07:00;0.90;99.90
1800;DHT22;919;48.274;12.292;2022-11-15T01:09:26;1.00;99.90
1800;DHT22;919;48.274;12.292;2022-11-15T01:11:53;1.10;99.90
1800;DHT22;919;48.274;12.292;2022-11-15T01:14:20;1.10;99.90
1800;DHT22;919;48.274;12.292;2022-11-15T01:16:47;1.20;99.90
1800;DHT22;919;48.274;12.292;2022-11-15T01:19:13;1.10;99.90
1800;DHT22;919;48.274;12.292;2022-11-15T01:21:40;1.00;99.90
1800;DHT22;919;48.274;12.292;2022-11-15T01:24:12;1.10;99.90
1800;DHT22;919;48.274;12.292;2022-11-15T01:26:39;1.10;99.90
1800;DHT22;919;48.274;12.292;2022-11-15T01:29:06;1.10;99.90
1800;DHT22;919;48.274;12.292;2022-11-15T01:31:33;1.10;99.90
1800;DHT22;919;48.274;12.292;2022-11-15T01:33:59;1.10;99.90
1800;DHT22;919;48.274;12.292;2022-11-15T01:36:26;1.00;99.90
1800;DHT22;919;48.274;12.292;2022-11-15T01:38:54;1.00;99.90
1800;DHT22;919;48.274;12.292;2022-11-15T01:41:24;0.90;99.90
1800;DHT22;919;48.274;12.292;2022-11-15T01:43:53;1.00;99.90
1800;DHT22;919;48.274;12.292;2022-11-15T01:46:27;1.00;99.90
1800;DHT22;919;48.274;12.292;2022-11-15T01:48:58;1.00;99.90
1800;DHT22;919;48.274;12.292;2022-11-15T01:51:28;1.00;99.90
1800;DHT22;919;48.274;12.292;2022-11-15T01:54:00;0.90;99.90
1800;DHT22;919;48.274;12.292;2022-11-15T01:56:32;0.80;99.90
1800;DHT22;919;48.274;12.292;2022-11-15T01:59:02;0.80;99.90
1800;DHT22;919;48.274;12.292;2022-11-15T02:01:30;0.80;99.90
1800;DHT22;919;48.274;12.292;2022-11-15T02:03:59;0.80;99.90
1800;DHT22;919;48.274;12.292;2022-11-15T02:06:27;0.80;99.90
1800;DHT22;919;48.274;12.292;2022-11-15T02:08:55;0.90;99.90
1800;DHT22;919;48.274;12.292;2022-11-15T02:11:22;0.80;99.90
1800;DHT22;919;48.274;12.292;2022-11-15T02:13:51;1.00;99.90
1800;DHT22;919;48.274;12.292;2022-11-15T02:16:22;1.00;99.90
1800;DHT22;919;48.274;12.292;2022-11-15T02:18:55;1.00;99.90
1800;DHT22;919;48.274;12.292;2022-11-15T02:21:29;1.00;99.90
1800;DHT22;919;48.274;12.292;2022-11-15T02:24:25;0.90;99.90
1800;DHT22;919;48.274;12.292;2022-11-15T02:27:36;1.00;99.90
1800;DHT22;919;48.274;12.292;2022-11-15T02:30:21;1.00;99.90
1800;DHT22;919;48.274;12.292;2022-11-15T02:32:50;1.00;99.90
1800;DHT22;919;48.274;12.292;2022-11-15T02:35:24;0.90;99.90
1800;DHT22;919;48.274;12.292;2022-11-15T02:37:56;0.90;99.90
1800;DHT22;919;48.274;12.292;2022-11-15T02:40:31;0.80;99.90
1800;DHT22;919;48.274;12.292;2022-11-15T02:43:06;0.70;99.90
1800;DHT22;919;48.274;12.292;2022-11-15T02:46:06;0.70;99.90
1800;DHT22;919;48.274;12.292;2022-11-15T02:48:35;0.70;99.90
1800;DHT22;919;48.274;12.292;2022-11-15T02:51:03;0.60;99.90
1800;DHT22;919;48.274;12.292;2022-11-15T02:53:31;0.40;99.90
1800;DHT22;919;48.274;12.292;2022-11-15T02:55:57;0.40;99.90
1800;DHT22;919;48.274;12.292;2022-11-15T02:58:53;0.30;99.90
1800;DHT22;919;48.274;12.292;2022-11-15T03:01:34;0.20;99.90
1800;DHT22;919;48.274;12.292;2022-11-15T03:04:10;0.20;99.90
1800;DHT22;919;48.274;12.292;2022-11-15T03:06:49;0.20;99.90
1800;DHT22;919;48.274;12.292;2022-11-15T03:09:25;0.10;99.90
1800;DHT22;919;48.274;12.292;2022-11-15T03:11:59;0.20;99.90
1800;DHT22;919;48.274;12.292;2022-11-15T03:14:30;0.20;99.90
1800;DHT22;919;48.274;12.292;2022-11-15T03:17:04;0.30;99.90
1800;DHT22;919;48.274;12.292;2022-11-15T03:19:40;0.30;99.90
1800;DHT22;919;48.274;12.292;2022-11-15T03:22:13;0.30;99.90
1800;DHT22;919;48.274;12.292;2022-11-15T03:24:43;0.30;99.90
1800;DHT22;919;48.274;12.292;2022-11-15T03:27:12;0.40;99.90
1800;DHT22;919;48.274;12.292;2022-11-15T03:29:42;0.40;99.90
1800;DHT22;919;48.274;12.292;2022-11-15T03:32:15;0.40;99.90
1800;DHT22;919;48.274;12.292;2022-11-15T03:34:45;0.40;99.90
1800;DHT22;919;48.274;12.292;2022-11-15T03:37:15;0.40;99.90
1800;DHT22;919;48.274;12.292;2022-11-15T03:39:43;0.30;99.90
1800;DHT22;919;48.274;12.292;2022-11-15T03:42:17;0.40;99.90
1800;DHT22;919;48.274;12.292;2022-11-15T03:44:51;0.30;99.90
1800;DHT22;919;48.274;12.292;2022-11-15T03:47:25;0.30;99.90
1800;DHT22;919;48.274;12.292;2022-11-15T03:49:57;0.30;99.90
1800;DHT22;919;48.274;12.292;2022-11-15T03:52:25;0.20;99.90
1800;DHT22;919;48.274;12.292;2022-11-15T03:54:54;0.20;99.90
1800;DHT22;919;48.274;12.292;2022-11-15T03:57:21;0.20;99.90
1800;DHT22;919;48.274;12.292;2022-11-15T03:59:48;0.10;99.90
1800;DHT22;919;48.274;12.292;2022-11-15T04:02:15;0.10;99.90
1800;DHT22;919;48.274;12.292;2022-11-15T04:04:43;0.10;99.90
1800;DHT22;919;48.274;12.292;2022-11-15T04:07:10;0.10;99.90
1800;DHT22;919;48.274;12.292;2022-11-15T04:09:36;0.20;99.90
1800;DHT22;919;48.274;12.292;2022-11-15T04:12:24;0.30;99.90
1800;DHT22;919;48.274;12.292;2022-11-15T04:14:57;0.40;99.90
1800;DHT22;919;48.274;12.292;2022-11-15T04:17:40;0.40;99.90
1800;DHT22;919;48.274;12.292;2022-11-15T04:20:11;0.50;99.90
1800;DHT22;919;48.274;12.292;2022-11-15T04:22:57;0.50;99.90
1800;DHT22;919;48.274;12.292;2022-11-15T04:25:42;0.70;99.90
1800;DHT22;919;48.274;12.292;2022-11-15T04:28:09;0.60;99.90
1800;DHT22;919;48.274;12.292;2022-11-15T04:30:37;0.70;99.90
1800;DHT22;919;48.274;12.292;2022-11-15T04:33:04;0.80;99.90
1800;DHT22;919;48.274;12.292;2022-11-15T04:35:32;0.80;99.90
1800;DHT22;919;48.274;12.292;2022-11-15T04:37:59;0.80;99.90
1800;DHT22;919;48.274;12.292;2022-11-15T04:40:25;0.70;99.90
1800;DHT22;919;48.274;12.292;2022-11-15T04:42:52;0.70;99.90
1800;DHT22;919;48.274;12.292;2022-11-15T04:45:19;0.70;99.90
1800;DHT22;919;48.274;12.292;2022-11-15T04:47:46;0.70;99.90
1800;DHT22;919;48.274;12.292;2022-11-15T04:50:14;0.80;99.90
1800;DHT22;919;48.274;12.292;2022-11-15T04:52:43;0.70;99.90
1800;DHT22;919;48.274;12.292;2022-11-15T04:55:10;0.70;99.90
1800;DHT22;919;48.274;12.292;2022-11-15T04:57:37;0.70;99.90
1800;DHT22;919;48.274;12.292;2022-11-15T05:00:06;0.60;99.90
1800;DHT22;919;48.274;12.292;2022-11-15T05:02:33;0.70;99.90
1800;DHT22;919;48.274;12.292;2022-11-15T05:05:14;0.70;99.90
1800;DHT22;919;48.274;12.292;2022-11-15T05:07:42;0.70;99.90
1800;DHT22;919;48.274;12.292;2022-11-15T05:10:09;0.70;99.90
1800;DHT22;919;48.274;12.292;2022-11-15T05:12:36;0.80;99.90
1800;DHT22;919;48.274;12.292;2022-11-15T05:15:04;0.80;99.90
1800;DHT22;919;48.274;12.292;2022-11-15T05:17:31;0.80;99.90
1800;DHT22;919;48.274;12.292;2022-11-15T05:19:57;0.80;99.90
1800;DHT22;919;48.274;12.292;2022-11-15T05:22:24;0.80;99.90
1800;DHT22;919;48.274;12.292;2022-11-15T05:24:52;0.80;99.90
1800;DHT22;919;48.274;12.292;2022-11-15T05:27:19;0.80;99.90
1800;DHT22;919;48.274;12.292;2022-11-15T05:29:46;0.80;99.90
1800;DHT22;919;48.274;12.292;2022-11-15T05:32:13;0.70;99.90
1800;DHT22;919;48.274;12.292;2022-11-15T05:34:40;0.70;99.90
1800;DHT22;919;48.274;12.292;2022-11-15T05:37:07;0.70;99.90
1800;DHT22;919;48.274;12.292;2022-11-15T05:39:34;0.60;99.90
1800;DHT22;919;48.274;12.292;2022-11-15T05:42:06;0.60;99.90
1800;DHT22;919;48.274;12.292;2022-11-15T05:44:36;0.60;99.90
1800;DHT22;919;48.274;12.292;2022-11-15T05:47:08;0.60;99.90
1800;DHT22;919;48.274;12.292;2022-11-15T05:49:38;0.60;99.90
1800;DHT22;919;48.274;12.292;2022-11-15T05:52:07;0.70;99.90
1800;DHT22;919;48.274;12.292;2022-11-15T05:54:37;0.60;99.90
1800;DHT22;919;48.274;12.292;2022-11-15T05:57:05;0.50;99.90
1800;DHT22;919;48.274;12.292;2022-11-15T05:59:33;0.40;99.90
1800;DHT22;919;48.274;12.292;2022-11-15T06:02:00;0.40;99.90
1800;DHT22;919;48.274;12.292;2022-11-15T06:04:27;0.30;99.90
1800;DHT22;919;48.274;12.292;2022-11-15T06:06:54;0.20;99.90
1800;DHT22;919;48.274;12.292;2022-11-15T06:09:20;0.40;99.90
1800;DHT22;919;48.274;12.292;2022-11-15T06:11:47;0.40;99.90
1800;DHT22;919;48.274;12.292;2022-11-15T06:14:16;0.30;99.90
1800;DHT22;919;48.274;12.292;2022-11-15T06:16:43;0.30;99.90
1800;DHT22;919;48.274;12.292;2022-11-15T06:19:10;0.30;99.90
1800;DHT22;919;48.274;12.292;2022-11-15T06:21:37;0.30;99.90
1800;DHT22;919;48.274;12.292;2022-11-15T06:24:05;0.20;99.90
1800;DHT22;919;48.274;12.292;2022-11-15T06:26:32;0.20;99.90
1800;DHT22;919;48.274;12.292;2022-11-15T06:28:59;0.10;99.90
1800;DHT22;919;48.274;12.292;2022-11-15T06:31:27;0.10;99.90
1800;DHT22;919;48.274;12.292;2022-11-15T06:33:54;0.20;99.90
1800;DHT22;919;48.274;12.292;2022-11-15T06:36:21;0.30;99.90
1800;DHT22;919;48.274;12.292;2022-11-15T06:38:47;0.30;99.90
1800;DHT22;919;48.274;12.292;2022-11-15T06:41:14;0.40;99.90
1800;DHT22;919;48.274;12.292;2022-11-15T06:43:42;0.40;99.90
1800;DHT22;919;48.274;12.292;2022-11-15T06:46:09;0.60;99.90
1800;DHT22;919;48.274;12.292;2022-11-15T06:48:37;0.60;99.90
1800;DHT22;919;48.274;12.292;2022-11-15T06:51:05;0.60;99.90
1800;DHT22;919;48.274;12.292;2022-11-15T06:53:32;0.60;99.90
1800;DHT22;919;48.274;12.292;2022-11-15T06:56:00;0.50;99.90
1800;DHT22;919;48.274;12.292;2022-11-15T06:58:27;0.50;99.90
1800;DHT22;919;48.274;12.292;2022-11-15T07:00:57;0.50;99.90
1800;DHT22;919;48.274;12.292;2022-11-15T07:03:24;0.50;99.90
1800;DHT22;919;48.274;12.292;2022-11-15T07:05:53;0.50;99.90
1800;DHT22;919;48.274;12.292;2022-11-15T07:08:20;0.50;99.90
1800;DHT22;919;48.274;12.292;2022-11-15T07:10:47;0.50;99.90
1800;DHT22;919;48.274;12.292;2022-11-15T07:13:14;0.60;99.90
1800;DHT22;919;48.274;12.292;2022-11-15T07:15:41;0.70;99.90
1800;DHT22;919;48.274;12.292;2022-11-15T07:18:08;0.80;99.90
1800;DHT22;919;48.274;12.292;2022-11-15T07:20:35;0.90;99.90
1800;DHT22;919;48.274;12.292;2022-11-15T07:23:04;1.00;99.90
1800;DHT22;919;48.274;12.292;2022-11-15T07:25:32;1.10;99.90
1800;DHT22;919;48.274;12.292;2022-11-15T07:28:00;1.20;99.90
1800;DHT22;919;48.274;12.292;2022-11-15T07:30:27;1.30;99.90
1800;DHT22;919;48.274;12.292;2022-11-15T07:32:54;1.40;99.90
1800;DHT22;919;48.274;12.292;2022-11-15T07:35:21;1.50;99.90
1800;DHT22;919;48.274;12.292;2022-11-15T07:37:56;1.50;99.90
1800;DHT22;919;48.274;12.292;2022-11-15T07:40:25;1.60;99.90
1800;DHT22;919;48.274;12.292;2022-11-15T07:42:52;1.70;99.90
1800;DHT22;919;48.274;12.292;2022-11-15T07:45:19;1.80;99.90
1800;DHT22;919;48.274;12.292;2022-11-15T07:47:46;1.90;99.90
1800;DHT22;919;48.274;12.292;2022-11-15T07:50:13;2.00;99.90
1800;DHT22;919;48.274;12.292;2022-11-15T07:52:59;2.00;99.90
1800;DHT22;919;48.274;12.292;2022-11-15T07:55:28;2.00;99.90
1800;DHT22;919;48.274;12.292;2022-11-15T07:58:00;2.00;99.90
1800;DHT22;919;48.274;12.292;2022-11-15T08:00:29;2.10;99.90
1800;DHT22;919;48.274;12.292;2022-11-15T08:03:04;2.20;99.90
1800;DHT22;919;48.274;12.292;2022-11-15T08:05:31;2.20;99.90
1800;DHT22;919;48.274;12.292;2022-11-15T08:07:58;2.10;99.90
1800;DHT22;919;48.274;12.292;2022-11-15T08:10:25;2.10;99.90
1800;DHT22;919;48.274;12.292;2022-11-15T08:12:58;2.20;99.90
1800;DHT22;919;48.274;12.292;2022-11-15T08:15:26;2.20;99.90
1800;DHT22;919;48.274;12.292;2022-11-15T08:17:56;2.20;99.90
1800;DHT22;919;48.274;12.292;2022-11-15T08:20:23;2.10;99.90
1800;DHT22;919;48.274;12.292;2022-11-15T08:22:51;2.10;99.90
1800;DHT22;919;48.274;12.292;2022-11-15T08:25:18;2.10;99.90
1800;DHT22;919;48.274;12.292;2022-11-15T08:27:45;2.20;99.90
1800;DHT22;919;48.274;12.292;2022-11-15T08:30:13;2.40;99.90
1800;DHT22;919;48.274;12.292;2022-11-15T08:32:41;2.70;99.90
1800;DHT22;919;48.274;12.292;2022-11-15T08:35:08;2.90;99.90
1800;DHT22;919;48.274;12.292;2022-11-15T08:37:35;3.00;99.90
1800;DHT22;919;48.274;12.292;2022-11-15T08:40:02;3.10;99.90
1800;DHT22;919;48.274;12.292;2022-11-15T08:42:29;3.20;99.90
1800;DHT22;919;48.274;12.292;2022-11-15T08:44:56;3.40;99.90
1800;DHT22;919;48.274;12.292;2022-11-15T08:47:24;3.40;99.90
1800;DHT22;919;48.274;12.292;2022-11-15T08:49:51;3.50;99.90
1800;DHT22;919;48.274;12.292;2022-11-15T08:52:18;3.60;99.90
1800;DHT22;919;48.274;12.292;2022-11-15T08:54:46;3.70;99.90
1800;DHT22;919;48.274;12.292;2022-11-15T08:57:12;3.70;99.90
1800;DHT22;919;48.274;12.292;2022-11-15T08:59:39;3.60;99.90
1800;DHT22;919;48.274;12.292;2022-11-15T09:02:06;3.60;99.90
1800;DHT22;919;48.274;12.292;2022-11-15T09:04:34;3.70;99.90
1800;DHT22;919;48.274;12.292;2022-11-15T09:07:01;3.80;99.90
1800;DHT22;919;48.274;12.292;2022-11-15T09:09:28;4.00;99.90
1800;DHT22;919;48.274;12.292;2022-11-15T09:11:54;4.20;99.90
1800;DHT22;919;48.274;12.292;2022-11-15T09:14:21;4.30;99.90
1800;DHT22;919;48.274;12.292;2022-11-15T09:16:48;4.50;99.90
1800;DHT22;919;48.274;12.292;2022-11-15T09:19:15;4.60;99.90
1800;DHT22;919;48.274;12.292;2022-11-15T09:21:43;4.70;99.90
1800;DHT22;919;48.274;12.292;2022-11-15T09:24:10;5.00;99.90
1800;DHT22;919;48.274;12.292;2022-11-15T09:26:37;5.30;99.90
1800;DHT22;919;48.274;12.292;2022-11-15T09:29:03;5.50;99.90
1800;DHT22;919;48.274;12.292;2022-11-15T09:31:30;5.70;99.90
1800;DHT22;919;48.274;12.292;2022-11-15T09:34:00;6.00;99.90
1800;DHT22;919;48.274;12.292;2022-11-15T09:36:26;6.20;99.90
1800;DHT22;919;48.274;12.292;2022-11-15T09:38:56;6.30;99.90
1800;DHT22;919;48.274;12.292;2022-11-15T09:41:48;6.50;99.90
1800;DHT22;919;48.274;12.292;2022-11-15T09:44:39;6.60;99.90
1800;DHT22;919;48.274;12.292;2022-11-15T09:47:21;6.50;99.90
1800;DHT22;919;48.274;12.292;2022-11-15T09:49:53;6.60;99.90
1800;DHT22;919;48.274;12.292;2022-11-15T09:52:21;6.80;99.90
1800;DHT22;919;48.274;12.292;2022-11-15T09:54:50;7.00;99.90
1800;DHT22;919;48.274;12.292;2022-11-15T09:57:20;7.10;99.90
1800;DHT22;919;48.274;12.292;2022-11-15T09:59:59;7.20;99.90
1800;DHT22;919;48.274;12.292;2022-11-15T10:02:44;7.30;99.90
1800;DHT22;919;48.274;12.292;2022-11-15T10:05:18;7.40;99.90
1800;DHT22;919;48.274;12.292;2022-11-15T10:07:50;7.40;99.90
1800;DHT22;919;48.274;12.292;2022-11-15T10:10:25;7.50;99.90
1800;DHT22;919;48.274;12.292;2022-11-15T10:12:54;7.50;99.90
1800;DHT22;919;48.274;12.292;2022-11-15T10:15:21;7.70;99.90
1800;DHT22;919;48.274;12.292;2022-11-15T10:18:13;8.00;99.90
1800;DHT22;919;48.274;12.292;2022-11-15T10:20:47;8.20;99.90
1800;DHT22;919;48.274;12.292;2022-11-15T10:23:16;8.40;99.90
1800;DHT22;919;48.274;12.292;2022-11-15T10:25:45;8.60;99.90
1800;DHT22;919;48.274;12.292;2022-11-15T10:28:15;8.80;99.90
1800;DHT22;919;48.274;12.292;2022-11-15T10:30:44;9.00;99.90
1800;DHT22;919;48.274;12.292;2022-11-15T10:33:25;9.10;99.90
1800;DHT22;919;48.274;12.292;2022-11-15T10:36:18;9.20;99.90
1800;DHT22;919;48.274;12.292;2022-11-15T10:38:54;9.30;99.90
1800;DHT22;919;48.274;12.292;2022-11-15T10:41:30;9.50;99.90
1800;DHT22;919;48.274;12.292;2022-11-15T10:44:19;9.60;99.90
1800;DHT22;919;48.274;12.292;2022-11-15T10:46:48;9.90;99.90
1800;DHT22;919;48.274;12.292;2022-11-15T10:49:19;10.00;99.90
1800;DHT22;919;48.274;12.292;2022-11-15T10:51:50;10.00;99.90
1800;DHT22;919;48.274;12.292;2022-11-15T10:54:23;10.00;99.90
1800;DHT22;919;48.274;12.292;2022-11-15T10:56:54;10.10;99.90
1800;DHT22;919;48.274;12.292;2022-11-15T10:59:28;10.30;99.90
1800;DHT22;919;48.274;12.292;2022-11-15T11:01:55;10.30;99.90
1800;DHT22;919;48.274;12.292;2022-11-15T11:04:23;10.40;99.90
1800;DHT22;919;48.274;12.292;2022-11-15T11:06:51;10.40;99.90
1800;DHT22;919;48.274;12.292;2022-11-15T11:09:30;10.40;99.90
1800;DHT22;919;48.274;12.292;2022-11-15T11:12:00;10.50;99.90
1800;DHT22;919;48.274;12.292;2022-11-15T11:14:30;10.70;99.90
1800;DHT22;919;48.274;12.292;2022-11-15T11:17:02;10.90;99.90
1800;DHT22;919;48.274;12.292;2022-11-15T11:19:41;11.00;99.90
1800;DHT22;919;48.274;12.292;2022-11-15T11:22:18;11.10;99.90
1800;DHT22;919;48.274;12.292;2022-11-15T11:24:53;11.10;99.90
1800;DHT22;919;48.274;12.292;2022-11-15T11:27:33;11.10;99.90
1800;DHT22;919;48.274;12.292;2022-11-15T11:30:10;11.20;99.90
1800;DHT22;919;48.274;12.292;2022-11-15T11:32:49;11.20;99.90
1800;DHT22;919;48.274;12.292;2022-11-15T11:35:20;11.30;99.90
1800;DHT22;919;48.274;12.292;2022-11-15T11:37:51;11.30;99.90
1800;DHT22;919;48.274;12.292;2022-11-15T11:40:27;11.40;99.90
1800;DHT22;919;48.274;12.292;2022-11-15T11:43:01;11.50;99.90
1800;DHT22;919;48.274;12.292;2022-11-15T11:45:59;11.60;99.90
1800;DHT22;919;48.274;12.292;2022-11-15T11:48:40;11.70;99.90
1800;DHT22;919;48.274;12.292;2022-11-15T11:51:12;11.80;99.90
1800;DHT22;919;48.274;12.292;2022-11-15T11:53:42;11.80;99.90
1800;DHT22;919;48.274;12.292;2022-11-15T11:56:19;11.90;99.90
1800;DHT22;919;48.274;12.292;2022-11-15T11:58:51;12.00;99.90
1800;DHT22;919;48.274;12.292;2022-11-15T12:01:23;12.00;99.90
1800;DHT22;919;48.274;12.292;2022-11-15T12:03:55;12.00;99.90
1800;DHT22;919;48.274;12.292;2022-11-15T12:06:29;12.10;99.90
1800;DHT22;919;48.274;12.292;2022-11-15T12:09:01;12.20;99.90
1800;DHT22;919;48.274;12.292;2022-11-15T12:11:35;12.10;99.90
1800;DHT22;919;48.274;12.292;2022-11-15T12:14:13;12.20;99.90
1800;DHT22;919;48.274;12.292;2022-11-15T12:16:43;12.10;99.90
1800;DHT22;919;48.274;12.292;2022-11-15T12:19:09;12.20;99.90
1800;DHT22;919;48.274;12.292;2022-11-15T12:21:42;12.20;99.90
1800;DHT22;919;48.274;12.292;2022-11-15T12:24:15;12.40;99.90
1800;DHT22;919;48.274;12.292;2022-11-15T12:26:48;12.30;99.90
1800;DHT22;919;48.274;12.292;2022-11-15T12:29:20;12.30;99.90
1800;DHT22;919;48.274;12.292;2022-11-15T12:31:52;12.30;99.90
1800;DHT22;919;48.274;12.292;2022-11-15T12:34:38;12.30;99.90
1800;DHT22;919;48.274;12.292;2022-11-15T12:40:36;12.20;99.90
1800;DHT22;919;48.274;12.292;2022-11-15T12:49:44;12.60;99.90
1800;DHT22;919;48.274;12.292;2022-11-15T12:52:12;12.60;99.90
1800;DHT22;919;48.274;12.292;2022-11-15T12:54:58;12.70;99.90
1800;DHT22;919;48.274;12.292;2022-11-15T12:57:40;12.70;99.90
1800;DHT22;919;48.274;12.292;2022-11-15T13:03:32;12.70;99.90
1800;DHT22;919;48.274;12.292;2022-11-15T13:06:08;12.80;99.90
1800;DHT22;919;48.274;12.292;2022-11-15T13:08:40;12.80;99.90
1800;DHT22;919;48.274;12.292;2022-11-15T13:14:43;12.90;99.90
1800;DHT22;919;48.274;12.292;2022-11-15T13:17:29;12.90;99.90
1800;DHT22;919;48.274;12.292;2022-11-15T13:20:19;13.00;99.90
1800;DHT22;919;48.274;12.292;2022-11-15T13:22:48;13.00;99.90
1800;DHT22;919;48.274;12.292;2022-11-15T13:28:25;13.00;99.90
1800;DHT22;919;48.274;12.292;2022-11-15T13:30:55;12.90;99.90
1800;DHT22;919;48.274;12.292;2022-11-15T13:33:25;12.90;99.90
1800;DHT22;919;48.274;12.292;2022-11-15T13:35:58;12.80;99.90
1800;DHT22;919;48.274;12.292;2022-11-15T13:38:28;12.70;99.90
1800;DHT22;919;48.274;12.292;2022-11-15T13:40:55;12.70;99.90
1800;DHT22;919;48.274;12.292;2022-11-15T13:43:44;12.60;99.90
1800;DHT22;919;48.274;12.292;2022-11-15T13:46:15;12.50;99.90
1800;DHT22;919;48.274;12.292;2022-11-15T13:48:43;12.50;99.90
1800;DHT22;919;48.274;12.292;2022-11-15T13:51:17;12.60;99.90
1800;DHT22;919;48.274;12.292;2022-11-15T13:53:48;12.50;99.90
1800;DHT22;919;48.274;12.292;2022-11-15T13:56:17;12.50;99.90
1800;DHT22;919;48.274;12.292;2022-11-15T13:58:44;12.50;99.90
1800;DHT22;919;48.274;12.292;2022-11-15T14:01:16;12.40;99.90
1800;DHT22;919;48.274;12.292;2022-11-15T14:03:49;12.40;99.90
1800;DHT22;919;48.274;12.292;2022-11-15T14:06:20;12.40;99.90
1800;DHT22;919;48.274;12.292;2022-11-15T14:09:31;12.40;99.90
1800;DHT22;919;48.274;12.292;2022-11-15T14:12:00;12.40;99.90
1800;DHT22;919;48.274;12.292;2022-11-15T14:14:28;12.40;99.90
1800;DHT22;919;48.274;12.292;2022-11-15T14:16:57;12.40;99.90
1800;DHT22;919;48.274;12.292;2022-11-15T14:19:42;12.30;99.90
1800;DHT22;919;48.274;12.292;2022-11-15T14:22:16;12.20;99.90
1800;DHT22;919;48.274;12.292;2022-11-15T14:24:45;12.10;99.90
1800;DHT22;919;48.274;12.292;2022-11-15T14:27:26;12.10;99.90
1800;DHT22;919;48.274;12.292;2022-11-15T14:29:53;12.00;99.90
1800;DHT22;919;48.274;12.292;2022-11-15T14:32:22;11.80;99.90
1800;DHT22;919;48.274;12.292;2022-11-15T14:34:49;11.70;99.90
1800;DHT22;919;48.274;12.292;2022-11-15T14:37:23;11.70;99.90
1800;DHT22;919;48.274;12.292;2022-11-15T14:39:51;11.70;99.90
1800;DHT22;919;48.274;12.292;2022-11-15T14:42:18;11.60;99.90
1800;DHT22;919;48.274;12.292;2022-11-15T14:44:46;11.70;99.90
1800;DHT22;919;48.274;12.292;2022-11-15T14:47:13;11.60;99.90
1800;DHT22;919;48.274;12.292;2022-11-15T14:49:40;11.50;99.90
1800;DHT22;919;48.274;12.292;2022-11-15T14:52:27;11.50;99.90
1800;DHT22;919;48.274;12.292;2022-11-15T14:54:55;11.40;99.90
1800;DHT22;919;48.274;12.292;2022-11-15T14:57:23;11.30;99.90
1800;DHT22;919;48.274;12.292;2022-11-15T14:59:50;11.10;99.90
1800;DHT22;919;48.274;12.292;2022-11-15T15:02:19;11.00;99.90
1800;DHT22;919;48.274;12.292;2022-11-15T15:04:46;10.90;99.90
1800;DHT22;919;48.274;12.292;2022-11-15T15:07:13;10.70;99.90
1800;DHT22;919;48.274;12.292;2022-11-15T15:09:42;10.60;99.90
1800;DHT22;919;48.274;12.292;2022-11-15T15:12:15;10.40;99.90
1800;DHT22;919;48.274;12.292;2022-11-15T15:14:43;10.30;99.90
1800;DHT22;919;48.274;12.292;2022-11-15T15:17:10;10.10;99.90
1800;DHT22;919;48.274;12.292;2022-11-15T15:19:37;10.00;99.90
1800;DHT22;919;48.274;12.292;2022-11-15T15:22:04;9.80;99.90
1800;DHT22;919;48.274;12.292;2022-11-15T15:24:32;9.50;99.90
1800;DHT22;919;48.274;12.292;2022-11-15T15:27:00;9.40;99.90
1800;DHT22;919;48.274;12.292;2022-11-15T15:29:27;9.20;99.90
1800;DHT22;919;48.274;12.292;2022-11-15T15:31:53;9.00;99.90
1800;DHT22;919;48.274;12.292;2022-11-15T15:34:20;9.00;99.90
1800;DHT22;919;48.274;12.292;2022-11-15T15:36:47;8.80;99.90
1800;DHT22;919;48.274;12.292;2022-11-15T15:39:14;8.70;99.90
1800;DHT22;919;48.274;12.292;2022-11-15T15:41:41;8.50;99.90
1800;DHT22;919;48.274;12.292;2022-11-15T15:44:09;8.30;99.90
1800;DHT22;919;48.274;12.292;2022-11-15T15:46:36;8.10;99.90
1800;DHT22;919;48.274;12.292;2022-11-15T15:49:03;7.90;99.90
1800;DHT22;919;48.274;12.292;2022-11-15T15:51:30;7.80;99.90
1800;DHT22;919;48.274;12.292;2022-11-15T15:53:57;7.50;99.90
1800;DHT22;919;48.274;12.292;2022-11-15T15:56:24;7.40;99.90
1800;DHT22;919;48.274;12.292;2022-11-15T15:58:50;7.40;99.90
1800;DHT22;919;48.274;12.292;2022-11-15T16:01:19;7.30;99.90
1800;DHT22;919;48.274;12.292;2022-11-15T16:03:46;7.20;99.90
1800;DHT22;919;48.274;12.292;2022-11-15T16:06:34;7.00;99.90
1800;DHT22;919;48.274;12.292;2022-11-15T16:09:02;6.90;99.90
1800;DHT22;919;48.274;12.292;2022-11-15T16:11:29;6.80;99.90
1800;DHT22;919;48.274;12.292;2022-11-15T16:13:56;6.80;99.90
1800;DHT22;919;48.274;12.292;2022-11-15T16:16:24;6.50;99.90
1800;DHT22;919;48.274;12.292;2022-11-15T16:18:51;6.40;99.90
1800;DHT22;919;48.274;12.292;2022-11-15T16:21:19;6.20;99.90
1800;DHT22;919;48.274;12.292;2022-11-15T16:23:45;6.10;99.90
1800;DHT22;919;48.274;12.292;2022-11-15T16:26:19;6.10;99.90
1800;DHT22;919;48.274;12.292;2022-11-15T16:28:46;6.10;99.90
1800;DHT22;919;48.274;12.292;2022-11-15T16:31:13;6.00;99.90
1800;DHT22;919;48.274;12.292;2022-11-15T16:33:41;6.00;99.90
1800;DHT22;919;48.274;12.292;2022-11-15T16:36:18;6.10;99.90
1800;DHT22;919;48.274;12.292;2022-11-15T16:38:45;6.20;99.90
1800;DHT22;919;48.274;12.292;2022-11-15T16:41:11;6.20;99.90
1800;DHT22;919;48.274;12.292;2022-11-15T16:43:38;6.20;99.90
1800;DHT22;919;48.274;12.292;2022-11-15T16:46:08;6.20;99.90
1800;DHT22;919;48.274;12.292;2022-11-15T16:48:40;6.20;99.90
1800;DHT22;919;48.274;12.292;2022-11-15T16:51:07;6.30;99.90
1800;DHT22;919;48.274;12.292;2022-11-15T16:53:35;6.30;99.90
1800;DHT22;919;48.274;12.292;2022-11-15T16:56:02;6.20;99.90